createdAt,value
2018-07-09T00:00:34.791Z,34.41
2018-07-09T00:01:34.544Z,34.6
2018-07-09T00:02:34.837Z,34.71
2018-07-09T00:03:34.863Z,34.79
2018-07-09T00:04:34.620Z,34.79
2018-07-09T00:05:34.913Z,34.89
2018-07-09T00:06:34.937Z,34.79
2018-07-09T00:07:34.963Z,34.99
2018-07-09T00:08:34.999Z,34.7
2018-07-09T00:09:35.013Z,34.6
2018-07-09T00:10:35.037Z,34.89
2018-07-09T00:11:35.070Z,35.18
2018-07-09T00:12:34.821Z,35.08
2018-07-09T00:13:35.113Z,35.08
2018-07-09T00:14:35.136Z,35.18
2018-07-09T00:15:35.164Z,35.08
2018-07-09T00:16:35.188Z,35.37
2018-07-09T00:17:35.215Z,35.08
2018-07-09T00:18:35.241Z,35.47
2018-07-09T00:19:34.998Z,35.08
2018-07-09T00:20:35.288Z,35.37
2018-07-09T00:21:35.047Z,35.36
2018-07-09T00:22:35.337Z,35.37
2018-07-09T00:23:35.373Z,35.36
2018-07-09T00:24:35.389Z,35.57
2018-07-09T00:25:35.446Z,35.57
2018-07-09T00:26:35.437Z,35.57
2018-07-09T00:27:35.475Z,35.47
2018-07-09T00:28:35.491Z,35.36
2018-07-09T00:29:35.246Z,35.55
2018-07-09T00:30:35.537Z,35.45
2018-07-09T00:31:35.567Z,35.84
2018-07-09T00:32:35.320Z,35.74
2018-07-09T00:33:35.614Z,35.84
2018-07-09T00:34:35.375Z,35.74
2018-07-09T00:35:35.661Z,35.74
2018-07-09T00:36:35.689Z,35.64
2018-07-09T00:37:35.446Z,35.94
2018-07-09T00:38:35.742Z,36.03
2018-07-09T00:39:35.762Z,36.13
2018-07-09T00:40:35.786Z,36.13
2018-07-09T00:41:35.815Z,36.13
2018-07-09T00:42:35.836Z,36.22
2018-07-09T00:43:35.859Z,36.22
2018-07-09T00:44:35.619Z,36.13
2018-07-09T00:45:35.645Z,36.52
2018-07-09T00:46:35.669Z,36.32
2018-07-09T00:47:35.957Z,36.22
2018-07-09T00:48:35.985Z,36.71
2018-07-09T00:49:36.009Z,36.71
2018-07-09T00:50:35.766Z,36.61
2018-07-09T00:51:36.058Z,36.22
2018-07-09T00:52:36.084Z,36.8
2018-07-09T00:53:36.108Z,36.22
2018-07-09T00:54:35.866Z,36.71
2018-07-09T00:55:36.159Z,36.79
2018-07-09T00:56:36.196Z,36.11
2018-07-09T00:57:36.216Z,36.88
2018-07-09T00:58:35.965Z,36.69
2018-07-09T00:59:36.261Z,36.69
2018-07-09T01:00:36.017Z,36.88
2018-07-09T01:01:36.306Z,36.98
2018-07-09T01:02:36.330Z,37.08
2018-07-09T01:03:36.443Z,36.98
2018-07-09T01:04:36.380Z,36.4
2018-07-09T01:05:36.403Z,36.98
2018-07-09T01:06:36.161Z,36.98
2018-07-09T01:07:36.454Z,36.98
2018-07-09T01:08:36.476Z,36.98
2018-07-09T01:09:36.507Z,36.5
2018-07-09T01:10:36.526Z,36.88
2018-07-09T01:11:36.284Z,36.79
2018-07-09T01:12:36.574Z,36.98
2018-07-09T01:13:36.334Z,37.08
2018-07-09T01:14:36.630Z,37.08
2018-07-09T01:15:36.654Z,37.27
2018-07-09T01:16:36.405Z,37.27
2018-07-09T01:17:36.701Z,37.27
2018-07-09T01:18:36.461Z,37.08
2018-07-09T01:19:36.479Z,37.17
2018-07-09T01:20:36.508Z,36.79
2018-07-09T01:21:36.796Z,37.46
2018-07-09T01:22:36.824Z,37.46
2018-07-09T01:23:36.844Z,37.46
2018-07-09T01:24:36.871Z,37.85
2018-07-09T01:25:36.895Z,37.85
2018-07-09T01:26:36.915Z,37.85
2018-07-09T01:27:36.684Z,37.65
2018-07-09T01:28:36.986Z,37.83
2018-07-09T01:29:36.992Z,37.65
2018-07-09T01:30:37.022Z,37.56
2018-07-09T01:31:37.044Z,37.56
2018-07-09T01:32:37.064Z,37.65
2018-07-09T01:33:37.088Z,37.65
2018-07-09T01:34:37.114Z,37.46
2018-07-09T01:35:37.139Z,37.75
2018-07-09T01:36:37.162Z,37.83
2018-07-09T01:37:37.184Z,38.14
2018-07-09T01:38:37.215Z,38.12
2018-07-09T01:39:37.236Z,38.02
2018-07-09T01:40:36.992Z,37.83
2018-07-09T01:41:37.282Z,37.73
2018-07-09T01:42:37.041Z,37.73
2018-07-09T01:43:37.329Z,38.02
2018-07-09T01:44:37.438Z,38.02
2018-07-09T01:45:37.381Z,37.54
2018-07-09T01:46:37.183Z,37.45
2018-07-09T01:47:37.501Z,37.54
2018-07-09T01:48:37.511Z,37.54
2018-07-09T01:49:37.520Z,37.54
2018-07-09T01:50:37.502Z,37.54
2018-07-09T01:51:37.258Z,37.54
2018-07-09T01:52:37.283Z,37.54
2018-07-09T01:53:37.571Z,38.21
2018-07-09T01:54:37.602Z,38.12
2018-07-09T01:55:37.622Z,38.02
2018-07-09T01:56:37.650Z,38.12
2018-07-09T01:57:37.403Z,38.31
2018-07-09T01:58:37.427Z,38.31
2018-07-09T01:59:37.719Z,38.31
2018-07-09T02:00:37.746Z,38.21
2018-07-09T02:01:37.768Z,38.41
2018-07-09T02:02:37.793Z,38.31
2018-07-09T02:03:37.812Z,38.31
2018-07-09T02:04:37.838Z,38.21
2018-07-09T02:05:37.862Z,38.51
2018-07-09T02:06:37.888Z,38.51
2018-07-09T02:07:37.910Z,37.93
2018-07-09T02:08:37.941Z,38.31
2018-07-09T02:09:37.962Z,38.6
2018-07-09T02:10:37.982Z,38.31
2018-07-09T02:11:37.739Z,38.6
2018-07-09T02:12:38.034Z,38.6
2018-07-09T02:13:38.062Z,38.6
2018-07-09T02:14:38.080Z,38.21
2018-07-09T02:15:38.104Z,38.51
2018-07-09T02:16:37.862Z,38.31
2018-07-09T02:17:38.153Z,38.7
2018-07-09T02:18:38.177Z,38.41
2018-07-09T02:19:38.201Z,38.31
2018-07-09T02:20:38.424Z,38.7
2018-07-09T02:21:38.248Z,38.68
2018-07-09T02:22:38.286Z,38.2
2018-07-09T02:23:38.300Z,38.51
2018-07-09T02:24:38.320Z,38.58
2018-07-09T02:25:38.351Z,38.58
2018-07-09T02:26:38.102Z,38.58
2018-07-09T02:27:38.394Z,38.49
2018-07-09T02:28:38.149Z,38.58
2018-07-09T02:29:38.454Z,38.29
2018-07-09T02:30:38.470Z,38.58
2018-07-09T02:31:38.488Z,38.58
2018-07-09T02:32:38.528Z,38.58
2018-07-09T02:33:38.533Z,38.6
2018-07-09T02:34:38.562Z,38.58
2018-07-09T02:35:38.585Z,38.29
2018-07-09T02:36:38.617Z,38.58
2018-07-09T02:37:38.637Z,38.39
2018-07-09T02:38:38.669Z,38.39
2018-07-09T02:39:38.681Z,38.49
2018-07-09T02:40:38.755Z,38.49
2018-07-09T02:41:38.736Z,38.01
2018-07-09T02:42:38.753Z,38.39
2018-07-09T02:43:38.774Z,38.78
2018-07-09T02:44:38.803Z,38.78
2018-07-09T02:45:38.555Z,38.78
2018-07-09T02:46:38.857Z,38.78
2018-07-09T02:47:38.887Z,38.49
2018-07-09T02:48:38.896Z,38.39
2018-07-09T02:49:38.922Z,38.78
2018-07-09T02:50:38.943Z,38.78
2018-07-09T02:51:38.968Z,38.68
2018-07-09T02:52:38.993Z,38.78
2018-07-09T02:53:39.015Z,38.01
2018-07-09T02:54:39.043Z,38.39
2018-07-09T02:55:39.062Z,38.68
2018-07-09T02:56:39.091Z,38.68
2018-07-09T02:57:38.841Z,38.78
2018-07-09T02:58:39.130Z,38.49
2018-07-09T02:59:39.158Z,38.49
2018-07-09T03:00:38.918Z,38.68
2018-07-09T03:01:39.209Z,38.78
2018-07-09T03:02:39.239Z,38.78
2018-07-09T03:03:39.263Z,38.56
2018-07-09T03:04:39.280Z,38.68
2018-07-09T03:05:39.297Z,38.87
2018-07-09T03:06:39.322Z,38.68
2018-07-09T03:07:39.129Z,38.18
2018-07-09T03:08:39.373Z,38.76
2018-07-09T03:09:39.393Z,38.66
2018-07-09T03:10:39.418Z,38.29
2018-07-09T03:11:39.441Z,38.76
2018-07-09T03:12:39.466Z,38.66
2018-07-09T03:13:39.529Z,38.66
2018-07-09T03:14:39.528Z,38.76
2018-07-09T03:15:39.542Z,38.66
2018-07-09T03:16:39.291Z,38.18
2018-07-09T03:17:39.645Z,38.66
2018-07-09T03:18:39.613Z,38.28
2018-07-09T03:19:39.630Z,38.76
2018-07-09T03:20:39.658Z,38.46
2018-07-09T03:21:39.676Z,38.66
2018-07-09T03:22:39.718Z,38.66
2018-07-09T03:23:39.723Z,38.46
2018-07-09T03:24:39.744Z,38.66
2018-07-09T03:25:39.773Z,38.66
2018-07-09T03:26:39.805Z,38.66
2018-07-09T03:27:39.815Z,38.76
2018-07-09T03:28:39.849Z,38.85
2018-07-09T03:29:40.019Z,38.56
2018-07-09T03:30:39.901Z,38.76
2018-07-09T03:31:39.957Z,38.76
2018-07-09T03:32:39.969Z,38.28
2018-07-09T03:33:39.959Z,38.76
2018-07-09T03:34:39.989Z,38.76
2018-07-09T03:35:40.009Z,38.76
2018-07-09T03:36:40.041Z,38.85
2018-07-09T03:37:40.053Z,38.85
2018-07-09T03:38:40.085Z,38.76
2018-07-09T03:39:40.107Z,38.76
2018-07-09T03:40:39.862Z,38.85
2018-07-09T03:41:40.147Z,38.76
2018-07-09T03:42:39.901Z,38.76
2018-07-09T03:43:40.195Z,38.85
2018-07-09T03:44:39.949Z,38.85
2018-07-09T03:45:40.240Z,38.85
2018-07-09T03:46:40.273Z,38.74
2018-07-09T03:47:40.287Z,38.83
2018-07-09T03:48:40.308Z,38.74
2018-07-09T03:49:40.331Z,38.35
2018-07-09T03:50:40.358Z,38.74
2018-07-09T03:51:40.379Z,38.54
2018-07-09T03:52:40.406Z,38.54
2018-07-09T03:53:40.429Z,38.64
2018-07-09T03:54:40.458Z,38.45
2018-07-09T03:55:40.476Z,38.74
2018-07-09T03:56:40.497Z,38.64
2018-07-09T03:57:40.524Z,38.74
2018-07-09T03:58:40.544Z,38.45
2018-07-09T03:59:40.299Z,38.64
2018-07-09T04:00:40.323Z,38.64
2018-07-09T04:01:40.648Z,38.64
2018-07-09T04:02:40.640Z,38.64
2018-07-09T04:03:40.659Z,38.64
2018-07-09T04:04:40.415Z,38.64
2018-07-09T04:05:40.762Z,38.83
2018-07-09T04:06:40.730Z,38.64
2018-07-09T04:07:40.759Z,38.83
2018-07-09T04:08:40.779Z,38.54
2018-07-09T04:09:40.802Z,38.83
2018-07-09T04:10:40.827Z,38.83
2018-07-09T04:11:40.579Z,38.74
2018-07-09T04:12:40.611Z,38.83
2018-07-09T04:13:40.896Z,38.93
2018-07-09T04:14:41.015Z,38.83
2018-07-09T04:15:40.937Z,38.83
2018-07-09T04:16:40.962Z,38.81
2018-07-09T04:17:40.991Z,38.83
2018-07-09T04:18:41.009Z,38.83
2018-07-09T04:19:41.031Z,38.83
2018-07-09T04:20:41.053Z,38.64
2018-07-09T04:21:41.081Z,38.93
2018-07-09T04:22:41.178Z,39.03
2018-07-09T04:23:40.859Z,38.93
2018-07-09T04:24:41.196Z,38.81
2018-07-09T04:25:41.248Z,38.93
2018-07-09T04:26:41.253Z,38.83
2018-07-09T04:27:41.216Z,38.93
2018-07-09T04:28:41.240Z,38.83
2018-07-09T04:29:40.997Z,38.83
2018-07-09T04:30:41.139Z,38.81
2018-07-09T04:31:41.369Z,39.22
2018-07-09T04:32:41.338Z,39.11
2018-07-09T04:33:41.359Z,39.12
2018-07-09T04:34:41.112Z,39.2
2018-07-09T04:35:41.410Z,39.22
2018-07-09T04:36:41.429Z,39.22
2018-07-09T04:37:41.501Z,38.93
2018-07-09T04:38:41.472Z,39.12
2018-07-09T04:39:41.493Z,39.01
2018-07-09T04:40:41.518Z,39.2
2018-07-09T04:41:41.282Z,39.39
2018-07-09T04:42:41.296Z,39.49
2018-07-09T04:43:41.441Z,39.61
2018-07-09T04:44:41.353Z,39.51
2018-07-09T04:45:41.634Z,40.07
2018-07-09T04:46:41.659Z,39.87
2018-07-09T04:47:41.684Z,39.97
2018-07-09T04:48:41.705Z,39.68
2018-07-09T04:49:41.457Z,39.87
2018-07-09T04:50:41.750Z,39.78
2018-07-09T04:51:41.774Z,39.7
2018-07-09T04:52:41.799Z,39.99
2018-07-09T04:53:41.550Z,39.7
2018-07-09T04:54:41.840Z,39.97
2018-07-09T04:55:41.864Z,39.7
2018-07-09T04:56:41.618Z,39.68
2018-07-09T04:57:41.910Z,40.07
2018-07-09T04:58:41.929Z,39.68
2018-07-09T04:59:41.688Z,39.68
2018-07-09T05:00:41.980Z,39.68
2018-07-09T05:01:42.002Z,39.79
2018-07-09T05:02:42.026Z,39.68
2018-07-09T05:03:42.047Z,39.78
2018-07-09T05:04:42.074Z,39.59
2018-07-09T05:05:42.262Z,39.68
2018-07-09T05:06:42.119Z,39.68
2018-07-09T05:07:41.872Z,39.78
2018-07-09T05:08:42.169Z,39.78
2018-07-09T05:09:41.917Z,39.68
2018-07-09T05:10:42.208Z,39.78
2018-07-09T05:11:42.229Z,40.07
2018-07-09T05:12:42.268Z,39.59
2018-07-09T05:13:42.278Z,39.78
2018-07-09T05:14:42.299Z,39.59
2018-07-09T05:15:42.055Z,39.78
2018-07-09T05:16:42.345Z,39.97
2018-07-09T05:17:42.366Z,39.59
2018-07-09T05:18:42.392Z,39.97
2018-07-09T05:19:42.423Z,39.97
2018-07-09T05:20:42.554Z,39.87
2018-07-09T05:21:42.196Z,40.07
2018-07-09T05:22:42.221Z,39.97
2018-07-09T05:23:42.516Z,40.07
2018-07-09T05:24:42.656Z,40.07
2018-07-09T05:25:42.552Z,40.07
2018-07-09T05:26:42.574Z,40.16
2018-07-09T05:27:42.599Z,40.07
2018-07-09T05:28:42.624Z,40.07
2018-07-09T05:29:42.811Z,39.97
2018-07-09T05:30:42.400Z,40.16
2018-07-09T05:31:42.696Z,40.16
2018-07-09T05:32:42.445Z,40.36
2018-07-09T05:33:42.733Z,40.07
2018-07-09T05:34:42.759Z,39.97
2018-07-09T05:35:42.787Z,39.87
2018-07-09T05:36:42.804Z,39.97
2018-07-09T05:37:42.560Z,40.07
2018-07-09T05:38:42.850Z,39.97
2018-07-09T05:39:42.870Z,40.07
2018-07-09T05:40:42.894Z,39.87
2018-07-09T05:41:42.920Z,40.07
2018-07-09T05:42:42.940Z,40.26
2018-07-09T05:43:42.963Z,40.07
2018-07-09T05:44:42.985Z,40.36
2018-07-09T05:45:43.010Z,40.26
2018-07-09T05:46:43.032Z,40.36
2018-07-09T05:47:43.058Z,40.07
2018-07-09T05:48:43.094Z,40.07
2018-07-09T05:49:42.834Z,40.16
2018-07-09T05:50:43.134Z,40.07
2018-07-09T05:51:43.155Z,39.97
2018-07-09T05:52:43.173Z,40.26
2018-07-09T05:53:43.192Z,40.16
2018-07-09T05:54:43.217Z,40.26
2018-07-09T05:55:43.237Z,40.16
2018-07-09T05:56:43.263Z,40.07
2018-07-09T05:57:43.283Z,40.16
2018-07-09T05:58:43.305Z,40.55
2018-07-09T05:59:43.330Z,40.64
2018-07-09T06:00:43.350Z,40.36
2018-07-09T06:01:43.374Z,40.16
2018-07-09T06:02:43.129Z,40.07
2018-07-09T06:03:43.422Z,40.16
2018-07-09T06:04:43.441Z,40.07
2018-07-09T06:05:43.469Z,40.26
2018-07-09T06:06:43.490Z,40.26
2018-07-09T06:07:43.248Z,40.64
2018-07-09T06:08:43.564Z,40.64
2018-07-09T06:09:43.561Z,40.94
2018-07-09T06:10:43.316Z,40.84
2018-07-09T06:11:43.606Z,40.26
2018-07-09T06:12:43.624Z,40.55
2018-07-09T06:13:43.883Z,40.45
2018-07-09T06:14:43.672Z,40.64
2018-07-09T06:15:43.697Z,40.64
2018-07-09T06:16:43.450Z,40.84
2018-07-09T06:17:43.736Z,40.64
2018-07-09T06:18:43.763Z,40.55
2018-07-09T06:19:44.015Z,40.55
2018-07-09T06:20:43.818Z,40.55
2018-07-09T06:21:43.831Z,40.36
2018-07-09T06:22:43.853Z,40.64
2018-07-09T06:23:43.876Z,40.45
2018-07-09T06:24:43.898Z,40.55
2018-07-09T06:25:43.925Z,40.64
2018-07-09T06:26:43.676Z,40.45
2018-07-09T06:27:43.971Z,40.55
2018-07-09T06:28:43.996Z,40.45
2018-07-09T06:29:43.859Z,40.45
2018-07-09T06:30:44.055Z,40.74
2018-07-09T06:31:43.796Z,40.64
2018-07-09T06:32:44.084Z,40.55
2018-07-09T06:33:43.837Z,40.64
2018-07-09T06:34:44.130Z,41.03
2018-07-09T06:35:44.160Z,41.03
2018-07-09T06:36:44.172Z,41.03
2018-07-09T06:37:43.926Z,40.84
2018-07-09T06:38:44.217Z,40.55
2018-07-09T06:39:44.243Z,40.55
2018-07-09T06:40:44.265Z,40.84
2018-07-09T06:41:44.290Z,40.84
2018-07-09T06:42:44.310Z,41.03
2018-07-09T06:43:44.341Z,40.64
2018-07-09T06:44:44.601Z,40.36
2018-07-09T06:45:44.121Z,40.84
2018-07-09T06:46:44.133Z,40.55
2018-07-09T06:47:44.424Z,41.03
2018-07-09T06:48:44.457Z,41.05
2018-07-09T06:49:44.469Z,40.74
2018-07-09T06:50:44.224Z,40.76
2018-07-09T06:51:44.517Z,40.86
2018-07-09T06:52:44.546Z,40.94
2018-07-09T06:53:44.295Z,40.95
2018-07-09T06:54:44.580Z,40.76
2018-07-09T06:55:44.609Z,40.94
2018-07-09T06:56:44.629Z,41.05
2018-07-09T06:57:44.656Z,40.95
2018-07-09T06:58:44.674Z,41.05
2018-07-09T06:59:44.697Z,40.86
2018-07-09T07:00:44.454Z,41.14
2018-07-09T07:01:44.745Z,40.95
2018-07-09T07:02:44.766Z,40.47
2018-07-09T07:03:44.523Z,40.66
2018-07-09T07:04:44.815Z,40.76
2018-07-09T07:05:44.838Z,40.47
2018-07-09T07:06:44.857Z,40.57
2018-07-09T07:07:44.880Z,40.47
2018-07-09T07:08:45.048Z,40.47
2018-07-09T07:09:44.927Z,40.66
2018-07-09T07:10:44.949Z,40.57
2018-07-09T07:11:44.982Z,40.09
2018-07-09T07:12:44.995Z,40.09
2018-07-09T07:13:45.019Z,40.37
2018-07-09T07:14:44.777Z,40.47
2018-07-09T07:15:45.065Z,40.28
2018-07-09T07:16:45.089Z,40.3
2018-07-09T07:17:44.849Z,40.11
2018-07-09T07:18:45.136Z,40.11
2018-07-09T07:19:45.167Z,40.2
2018-07-09T07:20:45.179Z,40.11
2018-07-09T07:21:45.206Z,40.11
2018-07-09T07:22:45.230Z,40.01
2018-07-09T07:23:44.981Z,40.3
2018-07-09T07:24:45.271Z,40.01
2018-07-09T07:25:45.026Z,39.91
2018-07-09T07:26:45.315Z,39.91
2018-07-09T07:27:45.074Z,39.72
2018-07-09T07:28:45.373Z,39.91
2018-07-09T07:29:45.389Z,39.64
2018-07-09T07:30:45.418Z,39.64
2018-07-09T07:31:45.431Z,39.36
2018-07-09T07:32:45.528Z,39.45
2018-07-09T07:33:45.485Z,39.26
2018-07-09T07:34:45.507Z,38.97
2018-07-09T07:35:45.528Z,38.97
2018-07-09T07:36:45.302Z,38.78
2018-07-09T07:37:45.570Z,38.78
2018-07-09T07:38:45.330Z,38.49
2018-07-09T07:39:45.620Z,38.6
2018-07-09T07:40:45.641Z,38.79
2018-07-09T07:41:45.662Z,38.79
2018-07-09T07:42:45.418Z,38.51
2018-07-09T07:43:45.441Z,38.41
2018-07-09T07:44:45.842Z,37.73
2018-07-09T07:45:45.758Z,38.33
2018-07-09T07:46:45.777Z,38.23
2018-07-09T07:47:45.532Z,37.56
2018-07-09T07:48:45.823Z,38.14
2018-07-09T07:49:45.853Z,37.08
2018-07-09T07:50:45.603Z,37.37
2018-07-09T07:51:45.909Z,37.27
2018-07-09T07:52:45.916Z,36.98
2018-07-09T07:53:46.001Z,37.19
2018-07-09T07:54:45.965Z,36.71
2018-07-09T07:55:46.081Z,36.61
2018-07-09T07:56:46.009Z,36.52
2018-07-09T07:57:46.039Z,36.42
2018-07-09T07:58:46.063Z,36.52
2018-07-09T07:59:46.087Z,36.13
2018-07-09T08:00:46.109Z,36.22
2018-07-09T08:01:46.146Z,36.15
2018-07-09T08:02:46.167Z,35.94
2018-07-09T08:03:46.175Z,35.57
2018-07-09T08:04:46.210Z,35.64
2018-07-09T08:05:46.225Z,35.86
2018-07-09T08:06:45.984Z,36.05
2018-07-09T08:07:46.269Z,35.37
2018-07-09T08:08:46.295Z,35.28
2018-07-09T08:09:46.165Z,35.08
2018-07-09T08:10:46.343Z,34.89
2018-07-09T08:11:51.453Z,34.7
2018-07-09T08:13:31.749Z,34.6
2018-07-09T08:14:30.639Z,34.31
2018-07-09T08:15:30.677Z,34.42
2018-07-09T08:16:30.682Z,34.52
2018-07-09T08:17:30.726Z,34.21
2018-07-09T08:18:30.748Z,34.21
2018-07-09T08:19:30.488Z,34.52
2018-07-09T08:20:30.780Z,33.94
2018-07-09T08:21:30.804Z,34.04
2018-07-09T08:22:30.827Z,34.04
2018-07-09T08:23:30.586Z,33.84
2018-07-09T08:24:30.873Z,34.04
2018-07-09T08:25:31.203Z,33.65
2018-07-09T08:26:30.933Z,33.94
2018-07-09T08:27:30.946Z,33.65
2018-07-09T08:28:30.972Z,33.75
2018-07-09T08:29:30.728Z,33.55
2018-07-09T08:30:31.020Z,33.45
2018-07-09T08:31:30.800Z,33.45
2018-07-09T08:32:31.108Z,33.55
2018-07-09T08:33:31.326Z,33.26
2018-07-09T08:34:30.848Z,33.26
2018-07-09T08:35:30.875Z,33.07
2018-07-09T08:36:31.162Z,32.87
2018-07-09T08:37:31.186Z,33.07
2018-07-09T08:38:31.215Z,32.97
2018-07-09T08:39:31.235Z,33.17
2018-07-09T08:40:31.259Z,33.26
2018-07-09T08:41:31.283Z,32.97
2018-07-09T08:42:31.039Z,32.97
2018-07-09T08:43:31.331Z,33.26
2018-07-09T08:44:31.090Z,32.89
2018-07-09T08:45:31.380Z,32.41
2018-07-09T08:46:31.404Z,32.51
2018-07-09T08:47:31.238Z,32.79
2018-07-09T08:48:31.458Z,32.02
2018-07-09T08:49:31.209Z,32.21
2018-07-09T08:50:31.500Z,32.6
2018-07-09T08:51:31.257Z,31.93
2018-07-09T08:52:31.553Z,31.83
2018-07-09T08:53:31.579Z,31.93
2018-07-09T08:54:31.598Z,31.93
2018-07-09T08:55:31.628Z,31.25
2018-07-09T08:56:31.647Z,31.44
2018-07-09T08:57:31.409Z,31.16
2018-07-09T08:58:31.709Z,31.07
2018-07-09T08:59:31.453Z,30.78
2018-07-09T09:00:31.479Z,30.78
2018-07-09T09:01:31.772Z,30.58
2018-07-09T09:02:31.527Z,30.39
2018-07-09T09:03:31.823Z,30.1
2018-07-09T09:04:31.575Z,30.1
2018-07-09T09:05:31.865Z,29.83
2018-07-09T09:06:31.641Z,29.71
2018-07-09T09:07:31.650Z,29.92
2018-07-09T09:08:31.949Z,29.83
2018-07-09T09:09:31.965Z,29.83
2018-07-09T09:10:32.106Z,29.73
2018-07-09T09:11:32.015Z,29.53
2018-07-09T09:12:31.771Z,29.34
2018-07-09T09:13:32.063Z,29.53
2018-07-09T09:14:32.088Z,28.97
2018-07-09T09:15:32.118Z,29.06
2018-07-09T09:16:32.244Z,28.77
2018-07-09T09:17:32.164Z,28.49
2018-07-09T09:18:32.785Z,28.68
2018-07-09T09:19:32.210Z,28.29
2018-07-09T09:20:32.236Z,28.3
2018-07-09T09:21:32.273Z,28.2
2018-07-09T09:22:32.341Z,27.82
2018-07-09T09:23:32.326Z,28.02
2018-07-09T09:24:32.335Z,28.02
2018-07-09T09:25:32.407Z,27.43
2018-07-09T09:26:32.123Z,27.73
2018-07-09T09:27:32.411Z,27.73
2018-07-09T09:28:32.442Z,27.64
2018-07-09T09:29:32.460Z,27.64
2018-07-09T09:30:32.485Z,27.56
2018-07-09T09:31:32.664Z,27.46
2018-07-09T09:32:32.537Z,27.26
2018-07-09T09:33:32.559Z,27.18
2018-07-09T09:34:32.583Z,26.98
2018-07-09T09:35:32.610Z,27.08
2018-07-09T09:36:32.637Z,26.98
2018-07-09T09:37:32.842Z,27.18
2018-07-09T09:38:32.419Z,26.98
2018-07-09T09:39:32.709Z,27.1
2018-07-09T09:40:32.735Z,26.61
2018-07-09T09:41:32.763Z,26.61
2018-07-09T09:42:32.789Z,26.51
2018-07-09T09:43:32.544Z,26.61
2018-07-09T09:44:32.839Z,26.42
2018-07-09T09:45:32.862Z,26.33
2018-07-09T09:46:32.890Z,25.95
2018-07-09T09:47:32.916Z,25.85
2018-07-09T09:48:32.950Z,25.95
2018-07-09T09:49:32.972Z,25.95
2018-07-09T09:50:32.726Z,25.65
2018-07-09T09:51:33.016Z,25.65
2018-07-09T09:52:33.055Z,25.36
2018-07-09T09:53:33.073Z,25.07
2018-07-09T09:54:33.099Z,24.88
2018-07-09T09:55:33.124Z,24.19
2018-07-09T09:56:33.149Z,24.58
2018-07-09T09:57:33.174Z,24.3
2018-07-09T09:58:33.200Z,24.19
2018-07-09T09:59:33.224Z,24.01
2018-07-09T10:00:33.349Z,24.21
2018-07-09T10:01:33.276Z,23.9
2018-07-09T10:02:33.300Z,24.19
2018-07-09T10:03:33.338Z,23.82
2018-07-09T10:04:33.357Z,23.72
2018-07-09T10:05:33.387Z,23.62
2018-07-09T10:06:33.532Z,23.72
2018-07-09T10:07:33.433Z,23.52
2018-07-09T10:08:33.266Z,23.43
2018-07-09T10:09:33.220Z,23.63
2018-07-09T10:10:33.513Z,24.02
2018-07-09T10:11:33.545Z,23.54
2018-07-09T10:12:33.564Z,23.83
2018-07-09T10:13:33.590Z,23.63
2018-07-09T10:14:33.351Z,23.54
2018-07-09T10:15:33.644Z,23.45
2018-07-09T10:16:33.674Z,23.55
2018-07-09T10:17:33.700Z,23.55
2018-07-09T10:18:33.724Z,23.45
2018-07-09T10:19:33.755Z,22.78
2018-07-09T10:20:33.778Z,22.78
2018-07-09T10:21:33.805Z,23.27
2018-07-09T10:22:33.830Z,22.89
2018-07-09T10:23:33.984Z,23.28
2018-07-09T10:24:33.617Z,23.08
2018-07-09T10:25:33.911Z,22.89
2018-07-09T10:26:33.671Z,22.99
2018-07-09T10:27:33.965Z,23.08
2018-07-09T10:28:33.991Z,22.9
2018-07-09T10:29:33.753Z,22.8
2018-07-09T10:30:34.252Z,22.51
2018-07-09T10:31:34.077Z,22.02
2018-07-09T10:32:34.105Z,21.73
2018-07-09T10:33:34.127Z,21.34
2018-07-09T10:34:34.155Z,21.05
2018-07-09T10:35:33.918Z,21.05
2018-07-09T10:36:34.211Z,20.56
2018-07-09T10:37:33.975Z,20.86
2018-07-09T10:38:34.272Z,20.95
2018-07-09T10:39:34.397Z,20.47
2018-07-09T10:40:34.325Z,20.28
2018-07-09T10:41:34.352Z,20.28
2018-07-09T10:42:34.378Z,20.76
2018-07-09T10:43:34.136Z,20.95
2018-07-09T10:44:34.438Z,20.48
2018-07-09T10:45:34.462Z,20.37
2018-07-09T10:46:34.487Z,19.78
2018-07-09T10:47:34.511Z,19.98
2018-07-09T10:48:34.638Z,19.88
2018-07-09T10:49:34.303Z,19.29
2018-07-09T10:50:34.598Z,19.39
2018-07-09T10:51:34.357Z,19.1
2018-07-09T10:52:34.388Z,19.2
2018-07-09T10:53:34.678Z,19
2018-07-09T10:54:34.706Z,19
2018-07-09T10:55:34.740Z,18.71
2018-07-09T10:56:34.760Z,19.19
2018-07-09T10:57:34.790Z,19.09
2018-07-09T10:58:34.828Z,18.99
2018-07-09T10:59:34.841Z,18.99
2018-07-09T11:00:34.820Z,19.58
2018-07-09T11:01:34.906Z,20.16
2018-07-09T11:02:34.878Z,19.96
2018-07-09T11:03:34.690Z,20.84
2018-07-09T11:04:34.721Z,21.23
2018-07-09T11:05:35.191Z,21.04
2018-07-09T11:06:35.038Z,21.14
2018-07-09T11:07:34.800Z,21.14
2018-07-09T11:08:35.094Z,20.94
2018-07-09T11:09:35.222Z,21.44
2018-07-09T11:10:35.153Z,21.44
2018-07-09T11:11:35.179Z,21.05
2018-07-09T11:12:35.228Z,21.25
2018-07-09T11:13:35.235Z,21.15
2018-07-09T11:14:35.281Z,21.25
2018-07-09T11:15:35.471Z,20.57
2018-07-09T11:16:35.318Z,20.77
2018-07-09T11:17:35.348Z,20.58
2018-07-09T11:18:35.108Z,20.19
2018-07-09T11:19:35.408Z,20.09
2018-07-09T11:20:35.439Z,20.19
2018-07-09T11:21:35.196Z,20.29
2018-07-09T11:22:35.488Z,20.19
2018-07-09T11:23:35.246Z,19.81
2018-07-09T11:24:35.545Z,19.62
2018-07-09T11:25:35.573Z,19.32
2018-07-09T11:26:35.330Z,19.13
2018-07-09T11:27:35.625Z,18.95
2018-07-09T11:28:35.655Z,18.95
2018-07-09T11:29:35.683Z,18.95
2018-07-09T11:30:35.707Z,18.85
2018-07-09T11:31:35.736Z,18.46
2018-07-09T11:32:35.768Z,18.56
2018-07-09T11:33:35.799Z,18.37
2018-07-09T11:34:35.823Z,18.66
2018-07-09T11:35:35.854Z,18.27
2018-07-09T11:36:35.889Z,18.56
2018-07-09T11:37:35.719Z,18.37
2018-07-09T11:38:35.939Z,17.88
2018-07-09T11:39:35.701Z,17.59
2018-07-09T11:40:35.738Z,17.49
2018-07-09T11:41:35.756Z,17.2
2018-07-09T11:42:36.054Z,17.3
2018-07-09T11:43:36.084Z,17.21
2018-07-09T11:44:36.113Z,16.82
2018-07-09T11:45:35.875Z,17.11
2018-07-09T11:46:36.172Z,16.72
2018-07-09T11:47:36.211Z,16.63
2018-07-09T11:48:36.233Z,16.34
2018-07-09T11:49:36.257Z,16.53
2018-07-09T11:50:36.287Z,16.34
2018-07-09T11:51:36.315Z,15.86
2018-07-09T11:52:36.342Z,15.86
2018-07-09T11:53:36.376Z,15.95
2018-07-09T11:54:36.140Z,15.95
2018-07-09T11:55:36.164Z,16.06
2018-07-09T11:56:36.461Z,15.96
2018-07-09T11:57:36.490Z,15.96
2018-07-09T11:58:36.312Z,15.86
2018-07-09T11:59:36.549Z,15.96
2018-07-09T12:00:36.581Z,15.86
2018-07-09T12:01:36.340Z,15.86
2018-07-09T12:02:36.371Z,15.97
2018-07-09T12:03:36.400Z,15.96
2018-07-09T12:04:36.698Z,15.97
2018-07-09T12:05:36.726Z,15.58
2018-07-09T12:06:36.757Z,15.38
2018-07-09T12:07:36.789Z,15.28
2018-07-09T12:08:36.553Z,15
2018-07-09T12:09:36.851Z,15.29
2018-07-09T12:10:36.892Z,15.09
2018-07-09T12:11:36.909Z,15.29
2018-07-09T12:12:36.937Z,15.48
2018-07-09T12:13:36.700Z,14.51
2018-07-09T12:14:37.004Z,15
2018-07-09T12:15:37.025Z,14.71
2018-07-09T12:16:37.056Z,14.71
2018-07-09T12:17:36.818Z,14.51
2018-07-09T12:18:37.115Z,14.91
2018-07-09T12:19:37.145Z,14.13
2018-07-09T12:20:37.176Z,13.73
2018-07-09T12:21:37.352Z,13.45
2018-07-09T12:22:37.238Z,13.45
2018-07-09T12:23:36.998Z,13.06
2018-07-09T12:24:37.035Z,12.87
2018-07-09T12:25:37.367Z,12.96
2018-07-09T12:26:37.352Z,12.57
2018-07-09T12:27:37.121Z,12.47
2018-07-09T12:28:37.417Z,12.58
2018-07-09T12:29:37.181Z,12.38
2018-07-09T12:30:37.210Z,12.38
2018-07-09T12:31:37.514Z,12.29
2018-07-09T12:32:37.274Z,11.9
2018-07-09T12:33:37.571Z,11.99
2018-07-09T12:34:37.612Z,11.99
2018-07-09T12:35:37.635Z,12
2018-07-09T12:36:37.803Z,11.7
2018-07-09T12:37:37.692Z,11.8
2018-07-09T12:38:37.724Z,11.51
2018-07-09T12:39:37.489Z,11.51
2018-07-09T12:40:37.790Z,11.71
2018-07-09T12:41:37.551Z,11.61
2018-07-09T12:42:37.581Z,11.61
2018-07-09T12:43:37.883Z,11.61
2018-07-09T12:44:37.914Z,11.91
2018-07-09T12:45:37.676Z,11.81
2018-07-09T12:46:37.709Z,11.81
2018-07-09T12:47:38.013Z,11.81
2018-07-09T12:48:38.035Z,11.82
2018-07-09T12:49:37.806Z,11.43
2018-07-09T12:50:38.098Z,11.62
2018-07-09T12:51:38.144Z,11.82
2018-07-09T12:52:38.182Z,11.43
2018-07-09T12:53:37.929Z,11.23
2018-07-09T12:54:37.957Z,11.23
2018-07-09T12:55:38.316Z,11.44